createdAt,value
2017-11-26T00:02:24.267Z,13.40
2017-11-26T00:04:51.280Z,15.00
2017-11-26T00:07:17.531Z,15.25
2017-11-26T00:09:43.707Z,16.35
2017-11-26T00:12:09.951Z,14.80
2017-11-26T00:14:36.232Z,14.07
2017-11-26T00:17:02.567Z,14.20
2017-11-26T00:19:28.841Z,13.65
2017-11-26T00:21:55.115Z,14.05
2017-11-26T00:24:22.169Z,14.60
2017-11-26T00:26:48.469Z,14.40
2017-11-26T00:29:14.849Z,14.35
2017-11-26T00:31:41.103Z,12.80
2017-11-26T00:34:07.349Z,14.38
2017-11-26T00:36:33.999Z,12.65
2017-11-26T00:39:00.314Z,13.02
2017-11-26T00:41:26.562Z,13.88
2017-11-26T00:43:52.908Z,13.15
2017-11-26T00:46:19.991Z,13.93
2017-11-26T00:48:46.195Z,16.75
2017-11-26T00:51:13.162Z,14.77
2017-11-26T00:53:39.404Z,15.27
2017-11-26T00:56:06.404Z,13.27
2017-11-26T00:58:33.376Z,13.20
2017-11-26T01:00:59.618Z,13.10
2017-11-26T01:03:25.841Z,13.00
2017-11-26T01:05:52.076Z,12.45
2017-11-26T01:08:19.095Z,13.23
2017-11-26T01:10:45.344Z,12.85
2017-11-26T01:13:11.630Z,12.95
2017-11-26T01:15:38.633Z,13.13
2017-11-26T01:18:04.872Z,11.70
2017-11-26T01:20:31.219Z,11.80
2017-11-26T01:22:57.474Z,12.40
2017-11-26T01:25:23.751Z,12.55
2017-11-26T01:27:49.985Z,12.65
2017-11-26T01:30:16.231Z,13.50
2017-11-26T01:32:43.249Z,12.35
2017-11-26T01:35:09.487Z,12.73
2017-11-26T01:37:35.758Z,14.02
2017-11-26T01:40:02.026Z,14.30
2017-11-26T01:42:28.291Z,13.60
2017-11-26T01:44:55.304Z,13.00
2017-11-26T01:47:21.552Z,12.45
2017-11-26T01:49:48.609Z,13.60
2017-11-26T01:52:14.851Z,14.10
2017-11-26T01:54:41.900Z,12.85
2017-11-26T01:57:08.154Z,12.60
2017-11-26T01:59:34.434Z,13.80
2017-11-26T02:02:00.657Z,12.68
2017-11-26T02:04:27.655Z,14.13
2017-11-26T02:06:53.891Z,13.10
2017-11-26T02:09:20.930Z,13.98
2017-11-26T02:11:47.169Z,13.50
2017-11-26T02:14:13.441Z,13.35
2017-11-26T02:16:39.703Z,13.75
2017-11-26T02:19:05.952Z,11.95
2017-11-26T02:21:32.209Z,13.40
2017-11-26T02:23:59.217Z,13.10
2017-11-26T02:26:25.484Z,11.18
2017-11-26T02:28:52.483Z,10.40
2017-11-26T02:31:31.264Z,13.20
2017-11-26T02:34:10.674Z,12.18
2017-11-26T02:36:36.951Z,13.55
2017-11-26T02:39:03.214Z,13.55
2017-11-26T02:41:29.456Z,13.80
2017-11-26T02:43:55.676Z,13.80
2017-11-26T02:46:21.934Z,11.82
2017-11-26T02:48:48.918Z,13.18
2017-11-26T02:51:15.159Z,12.82
2017-11-26T02:53:41.428Z,11.10
2017-11-26T02:56:07.707Z,11.93
2017-11-26T02:58:34.004Z,12.30
2017-11-26T03:01:00.999Z,11.25
2017-11-26T03:03:27.238Z,10.38
2017-11-26T03:05:53.544Z,10.77
2017-11-26T03:08:19.799Z,9.80
2017-11-26T03:10:46.816Z,11.52
2017-11-26T03:13:13.058Z,10.25
2017-11-26T03:15:39.337Z,10.00
2017-11-26T03:18:05.609Z,11.00
2017-11-26T03:20:31.864Z,11.48
2017-11-26T03:22:58.224Z,8.77
2017-11-26T03:25:24.470Z,10.98
2017-11-26T03:27:50.731Z,11.15
2017-11-26T03:30:17.010Z,10.38
2017-11-26T03:32:43.274Z,9.90
2017-11-26T03:35:09.561Z,11.25
2017-11-26T03:37:35.850Z,10.77
2017-11-26T03:40:02.882Z,11.45
2017-11-26T03:42:29.130Z,11.57
2017-11-26T03:44:55.389Z,11.80
2017-11-26T03:47:21.668Z,11.80
2017-11-26T03:49:47.948Z,11.85
2017-11-26T03:52:14.933Z,11.40
2017-11-26T03:54:41.251Z,10.15
2017-11-26T03:57:08.286Z,11.30
2017-11-26T03:59:34.511Z,11.05
2017-11-26T04:02:00.804Z,10.00
2017-11-26T04:04:27.023Z,12.48
2017-11-26T04:06:54.015Z,10.63
2017-11-26T04:09:20.275Z,11.02
2017-11-26T04:11:46.526Z,10.48
2017-11-26T04:14:13.514Z,10.27
2017-11-26T04:16:39.758Z,7.50
2017-11-26T04:19:06.011Z,9.10
2017-11-26T04:21:33.080Z,10.00
2017-11-26T04:24:00.066Z,9.52
2017-11-26T04:26:26.308Z,9.00
2017-11-26T04:28:52.668Z,8.90
2017-11-26T04:31:19.671Z,8.90
2017-11-26T04:33:45.939Z,7.80
2017-11-26T04:36:12.928Z,8.18
2017-11-26T04:38:39.239Z,9.07
2017-11-26T04:41:05.523Z,8.18
2017-11-26T04:43:31.796Z,8.27
2017-11-26T04:45:58.053Z,8.18
2017-11-26T04:48:24.336Z,7.62
2017-11-26T04:50:50.586Z,6.20
2017-11-26T04:53:16.842Z,6.95
2017-11-26T04:55:43.129Z,5.90
2017-11-26T04:58:09.416Z,7.55
2017-11-26T05:00:35.693Z,6.62
2017-11-26T05:03:02.692Z,8.18
2017-11-26T05:05:28.975Z,6.87
2017-11-26T05:07:55.243Z,6.03
2017-11-26T05:10:21.491Z,6.28
2017-11-26T05:12:48.492Z,5.40
2017-11-26T05:15:14.746Z,5.35
2017-11-26T05:17:40.991Z,6.60
2017-11-26T05:20:07.946Z,5.62
2017-11-26T05:22:34.296Z,5.95
2017-11-26T05:25:00.540Z,5.80
2017-11-26T05:27:26.834Z,5.20
2017-11-26T05:29:53.802Z,5.20
2017-11-26T05:32:20.048Z,5.43
2017-11-26T05:34:46.297Z,5.45
2017-11-26T05:37:13.350Z,6.18
2017-11-26T05:39:39.621Z,5.78
2017-11-26T05:42:06.596Z,5.95
2017-11-26T05:44:32.849Z,5.47
2017-11-26T05:46:59.116Z,5.80
2017-11-26T05:49:25.375Z,6.20
2017-11-26T05:51:51.632Z,6.90
2017-11-26T05:54:17.876Z,5.78
2017-11-26T05:56:44.955Z,5.75
2017-11-26T05:59:11.280Z,5.93
2017-11-26T06:01:37.533Z,6.37
2017-11-26T06:04:03.789Z,6.00
2017-11-26T06:06:30.047Z,5.82
2017-11-26T06:08:56.266Z,5.78
2017-11-26T06:11:23.255Z,6.20
2017-11-26T06:13:49.547Z,6.85
2017-11-26T06:16:15.755Z,5.87
2017-11-26T06:18:42.771Z,6.25
2017-11-26T06:21:09.050Z,7.05
2017-11-26T06:23:35.327Z,6.22
2017-11-26T06:26:01.596Z,7.10
2017-11-26T06:28:27.839Z,6.43
2017-11-26T06:30:54.092Z,7.25
2017-11-26T06:33:20.391Z,7.53
2017-11-26T06:35:47.479Z,7.00
2017-11-26T06:38:13.705Z,6.65
2017-11-26T06:40:39.970Z,6.20
2017-11-26T06:43:06.212Z,7.60
2017-11-26T06:45:33.354Z,7.43
2017-11-26T06:47:59.595Z,7.90
2017-11-26T06:50:26.582Z,6.90
2017-11-26T06:52:52.857Z,6.18
2017-11-26T06:55:19.144Z,7.03
2017-11-26T06:57:45.433Z,6.40
2017-11-26T07:00:11.703Z,6.20
2017-11-26T07:02:37.982Z,7.28
2017-11-26T07:05:04.964Z,7.28
2017-11-26T07:07:31.322Z,6.87
2017-11-26T07:09:57.552Z,6.40
2017-11-26T07:12:23.820Z,6.75
2017-11-26T07:14:50.077Z,6.95
2017-11-26T07:17:16.395Z,7.60
2017-11-26T07:19:42.646Z,6.90
2017-11-26T07:22:08.907Z,6.85
2017-11-26T07:24:36.023Z,7.07
2017-11-26T07:27:02.287Z,6.12
2017-11-26T07:29:28.563Z,9.15
2017-11-26T07:31:54.812Z,7.25
2017-11-26T07:34:21.079Z,6.65
2017-11-26T07:36:47.417Z,7.03
2017-11-26T07:39:13.689Z,7.47
2017-11-26T07:41:39.919Z,7.10
2017-11-26T07:44:06.179Z,6.75
2017-11-26T07:46:32.536Z,7.03
2017-11-26T07:48:58.772Z,6.78
2017-11-26T07:51:25.089Z,6.35
2017-11-26T07:53:52.091Z,6.62
2017-11-26T07:56:18.339Z,6.30
2017-11-26T07:58:44.590Z,7.70
2017-11-26T08:01:10.894Z,6.10
2017-11-26T08:03:37.119Z,5.97
2017-11-26T08:06:03.350Z,6.40
2017-11-26T08:08:30.320Z,5.68
2017-11-26T08:10:56.544Z,6.62
2017-11-26T08:13:23.503Z,5.95
2017-11-26T08:15:49.741Z,6.07
2017-11-26T08:18:15.972Z,5.57
2017-11-26T08:20:42.262Z,6.80
2017-11-26T08:23:09.294Z,6.30
2017-11-26T08:25:36.274Z,6.37
2017-11-26T08:28:02.535Z,6.60
2017-11-26T08:30:29.452Z,5.70
2017-11-26T08:32:55.713Z,7.40
2017-11-26T08:35:22.010Z,5.82
2017-11-26T08:37:49.028Z,6.43
2017-11-26T08:40:16.004Z,5.70
2017-11-26T08:42:42.283Z,7.85
2017-11-26T08:45:08.539Z,6.12
2017-11-26T08:47:35.614Z,5.82
2017-11-26T08:50:01.870Z,6.40
2017-11-26T08:52:28.879Z,6.97
2017-11-26T08:54:55.117Z,7.72
2017-11-26T08:57:21.383Z,9.15
2017-11-26T08:59:48.370Z,7.30
2017-11-26T09:02:14.687Z,7.78
2017-11-26T09:04:41.023Z,6.15
2017-11-26T09:07:07.303Z,6.60
2017-11-26T09:09:33.571Z,7.15
2017-11-26T09:11:59.946Z,6.85
2017-11-26T09:14:26.203Z,7.37
2017-11-26T09:16:53.210Z,6.28
2017-11-26T09:19:19.474Z,6.50
2017-11-26T09:21:45.820Z,7.00
2017-11-26T09:24:12.066Z,6.57
2017-11-26T09:26:39.110Z,6.80
2017-11-26T09:29:05.386Z,8.68
2017-11-26T09:31:31.743Z,7.90
2017-11-26T09:33:58.027Z,7.62
2017-11-26T09:36:24.279Z,7.78
2017-11-26T09:38:50.534Z,9.25
2017-11-26T09:41:17.531Z,8.77
2017-11-26T09:43:43.775Z,7.53
2017-11-26T09:46:10.851Z,8.25
2017-11-26T09:48:37.180Z,8.15
2017-11-26T09:51:04.251Z,8.70
2017-11-26T09:53:30.578Z,7.70
2017-11-26T09:55:56.900Z,7.78
2017-11-26T09:58:23.148Z,7.90
2017-11-26T10:00:49.411Z,10.05
2017-11-26T10:03:16.423Z,7.20
2017-11-26T10:05:42.696Z,8.82
2017-11-26T10:08:09.707Z,8.40
2017-11-26T10:10:35.974Z,8.85
2017-11-26T10:13:02.269Z,7.12
2017-11-26T10:15:28.499Z,8.75
2017-11-26T10:17:54.776Z,7.35
2017-11-26T10:20:21.778Z,10.48
2017-11-26T10:22:48.062Z,7.32
2017-11-26T10:25:14.417Z,7.43
2017-11-26T10:27:40.695Z,7.25
2017-11-26T10:30:07.695Z,7.10
2017-11-26T10:32:34.015Z,7.10
2017-11-26T10:35:00.315Z,6.65
2017-11-26T10:37:26.600Z,8.35
2017-11-26T10:39:53.743Z,7.10
2017-11-26T10:42:20.016Z,6.68
2017-11-26T10:44:46.301Z,10.50
2017-11-26T10:47:12.563Z,7.87
2017-11-26T10:49:39.572Z,8.48
2017-11-26T10:52:05.824Z,7.60
2017-11-26T10:54:32.890Z,8.68
2017-11-26T10:56:59.181Z,7.90
2017-11-26T10:59:26.230Z,8.05
2017-11-26T11:01:52.499Z,7.30
2017-11-26T11:04:18.806Z,6.95
2017-11-26T11:06:45.800Z,7.00
2017-11-26T11:09:12.147Z,8.60
2017-11-26T11:11:38.408Z,7.05
2017-11-26T11:14:05.452Z,6.85
2017-11-26T11:16:32.528Z,6.95
2017-11-26T11:18:58.827Z,6.28
2017-11-26T11:21:25.896Z,7.50
2017-11-26T11:23:52.882Z,6.70
2017-11-26T11:26:19.129Z,7.03
2017-11-26T11:28:46.223Z,6.43
2017-11-26T11:31:13.218Z,6.82
2017-11-26T11:33:39.478Z,6.25
2017-11-26T11:36:05.722Z,6.82
2017-11-26T11:38:31.967Z,7.00
2017-11-26T11:40:58.279Z,7.35
2017-11-26T11:43:24.563Z,6.60
2017-11-26T11:45:51.599Z,7.03
2017-11-26T11:48:18.703Z,6.70
2017-11-26T11:50:44.979Z,6.50
2017-11-26T11:53:11.981Z,6.72
2017-11-26T11:55:38.275Z,7.70
2017-11-26T11:58:05.308Z,9.90
2017-11-26T12:00:31.579Z,6.72
2017-11-26T12:02:57.867Z,6.50
2017-11-26T12:05:24.163Z,7.40
2017-11-26T12:07:50.480Z,7.60
2017-11-26T12:10:16.760Z,6.87
2017-11-26T12:12:43.079Z,7.55
2017-11-26T12:15:10.104Z,8.05
2017-11-26T12:17:36.386Z,7.15
2017-11-26T12:20:02.638Z,7.20
2017-11-26T12:22:28.941Z,8.43
2017-11-26T12:24:55.222Z,7.85
2017-11-26T12:27:21.503Z,7.45
2017-11-26T12:29:47.786Z,6.75
2017-11-26T12:32:14.142Z,6.05
2017-11-26T12:34:41.207Z,6.75
2017-11-26T12:37:07.476Z,7.25
2017-11-26T12:39:33.805Z,7.20
2017-11-26T12:42:00.826Z,8.00
2017-11-26T12:44:27.149Z,6.78
2017-11-26T12:46:53.421Z,7.43
2017-11-26T12:49:19.740Z,8.02
2017-11-26T12:51:45.984Z,6.93
2017-11-26T12:54:12.280Z,7.12
2017-11-26T12:56:38.523Z,7.22
2017-11-26T12:59:04.775Z,6.55
2017-11-26T13:01:30.999Z,7.12
2017-11-26T13:03:58.008Z,6.70
2017-11-26T13:06:24.297Z,7.07
2017-11-26T13:08:50.576Z,6.30
2017-11-26T13:11:16.815Z,7.50
2017-11-26T13:13:43.085Z,8.25
2017-11-26T13:16:10.052Z,6.62
2017-11-26T13:18:37.384Z,6.55
2017-11-26T13:21:03.456Z,7.32
2017-11-26T13:23:29.519Z,7.10
2017-11-26T13:25:55.627Z,7.75
2017-11-26T13:28:22.444Z,7.50
2017-11-26T13:30:48.524Z,9.02
2017-11-26T13:33:14.599Z,6.68
2017-11-26T13:35:41.435Z,7.87
2017-11-26T13:38:08.468Z,6.82
2017-11-26T13:40:34.540Z,7.80
2017-11-26T13:43:00.611Z,7.43
2017-11-26T13:45:26.696Z,7.70
2017-11-26T13:47:52.770Z,7.47
2017-11-26T13:50:18.839Z,7.40
2017-11-26T13:52:44.918Z,7.53
2017-11-26T13:55:11.760Z,8.10
2017-11-26T13:57:38.624Z,9.35
2017-11-26T14:00:04.715Z,8.40
2017-11-26T14:02:30.796Z,8.60
2017-11-26T14:04:56.911Z,6.93
2017-11-26T14:07:23.002Z,7.53
2017-11-26T14:09:49.811Z,7.05
2017-11-26T14:12:15.881Z,7.50
2017-11-26T14:14:42.694Z,7.57
2017-11-26T14:17:08.763Z,6.90
2017-11-26T14:19:34.903Z,7.43
2017-11-26T14:22:00.973Z,6.70
2017-11-26T14:24:27.027Z,6.62
2017-11-26T14:26:53.159Z,6.78
2017-11-26T14:29:19.937Z,6.32
2017-11-26T14:31:46.203Z,6.12
2017-11-26T14:34:13.281Z,6.30
2017-11-26T14:36:39.547Z,7.80
2017-11-26T14:39:05.838Z,8.10
2017-11-26T14:41:32.119Z,7.20
2017-11-26T14:43:59.152Z,7.35
2017-11-26T14:46:25.390Z,8.07
2017-11-26T14:48:51.674Z,7.22
2017-11-26T14:51:18.824Z,6.95
2017-11-26T14:53:45.071Z,7.95
2017-11-26T14:56:11.322Z,6.87
2017-11-26T14:58:38.349Z,7.28
2017-11-26T15:01:04.579Z,8.68
2017-11-26T15:03:30.874Z,7.20
2017-11-26T15:05:57.867Z,7.30
2017-11-26T15:08:24.953Z,9.80
2017-11-26T15:10:51.215Z,6.82
2017-11-26T15:13:17.464Z,9.07
2017-11-26T15:15:43.871Z,9.77
2017-11-26T15:18:10.897Z,12.02
2017-11-26T15:20:37.161Z,10.23
2017-11-26T15:23:03.430Z,10.00
2017-11-26T15:25:29.721Z,8.30
2017-11-26T15:27:55.945Z,9.13
2017-11-26T15:30:22.184Z,8.93
2017-11-26T15:32:48.451Z,8.20
2017-11-26T15:35:14.719Z,9.60
2017-11-26T15:37:40.983Z,8.57
2017-11-26T15:40:07.269Z,8.88
2017-11-26T15:42:34.401Z,9.70
2017-11-26T15:45:00.683Z,8.75
2017-11-26T15:47:26.950Z,8.20
2017-11-26T15:49:53.267Z,8.10
2017-11-26T15:52:19.530Z,8.07
2017-11-26T15:54:46.471Z,9.15
2017-11-26T15:57:12.574Z,8.90
2017-11-26T15:59:38.639Z,7.35
2017-11-26T16:02:04.724Z,7.43
2017-11-26T16:04:30.820Z,7.75
2017-11-26T16:06:57.647Z,9.60
2017-11-26T16:09:23.735Z,9.10
2017-11-26T16:11:49.806Z,7.95
2017-11-26T16:14:16.124Z,9.23
2017-11-26T16:16:42.927Z,9.07
2017-11-26T16:19:09.184Z,9.25
2017-11-26T16:21:36.083Z,8.60
2017-11-26T16:24:02.199Z,8.30
2017-11-26T16:26:28.276Z,8.70
2017-11-26T16:28:55.087Z,9.02
2017-11-26T16:31:21.171Z,9.02
2017-11-26T16:33:47.242Z,8.10
2017-11-26T16:36:13.342Z,8.93
2017-11-26T16:38:39.555Z,7.78
2017-11-26T16:41:05.744Z,8.45
2017-11-26T16:43:32.608Z,9.00
2017-11-26T16:45:58.688Z,8.60
2017-11-26T16:48:25.579Z,8.07
2017-11-26T16:50:51.668Z,8.45
2017-11-26T16:53:18.500Z,9.02
2017-11-26T16:55:45.352Z,11.00
2017-11-26T16:58:11.423Z,11.52
2017-11-26T17:00:37.519Z,11.05
2017-11-26T17:03:04.390Z,9.90
2017-11-26T17:05:30.512Z,9.43
2017-11-26T17:07:56.596Z,9.40
2017-11-26T17:10:23.483Z,9.52
2017-11-26T17:12:49.618Z,10.68
2017-11-26T17:15:15.754Z,9.80
2017-11-26T17:17:41.823Z,9.70
2017-11-26T17:20:08.644Z,9.73
2017-11-26T17:22:35.479Z,8.73
2017-11-26T17:25:03.414Z,9.98
2017-11-26T17:27:29.545Z,8.98
2017-11-26T17:29:55.606Z,9.57
2017-11-26T17:32:22.436Z,9.10
2017-11-26T17:34:48.528Z,8.85
2017-11-26T17:37:15.359Z,9.27
2017-11-26T17:39:41.456Z,7.50
2017-11-26T17:42:09.707Z,9.70
2017-11-26T17:44:36.576Z,7.50
2017-11-26T17:47:02.667Z,8.40
2017-11-26T17:49:29.501Z,9.20
2017-11-26T17:51:55.592Z,7.15
2017-11-26T17:54:21.720Z,7.53
2017-11-26T17:56:48.139Z,7.62
2017-11-26T17:59:14.280Z,7.03
2017-11-26T18:01:40.418Z,8.30
2017-11-26T18:04:06.567Z,10.23
2017-11-26T18:06:33.378Z,10.20
2017-11-26T18:08:59.544Z,8.20
2017-11-26T18:11:25.653Z,7.32
2017-11-26T18:13:52.570Z,7.45
2017-11-26T18:16:18.741Z,7.22
2017-11-26T18:18:46.101Z,7.00
2017-11-26T18:21:12.223Z,7.18
2017-11-26T18:23:39.067Z,8.23
2017-11-26T18:26:05.257Z,8.18
2017-11-26T18:28:31.437Z,7.62
2017-11-26T18:30:57.551Z,8.98
2017-11-26T18:33:23.658Z,9.18
2017-11-26T18:35:50.543Z,9.50
2017-11-26T18:38:16.733Z,9.25
2017-11-26T18:40:42.802Z,10.07
2017-11-26T18:43:08.875Z,8.77
2017-11-26T18:45:35.191Z,8.90
2017-11-26T18:48:01.358Z,10.00
2017-11-26T18:50:27.478Z,10.18
2017-11-26T18:52:53.566Z,9.32
2017-11-26T18:55:20.620Z,11.43
2017-11-26T18:57:47.455Z,8.68
2017-11-26T19:00:13.581Z,8.50
2017-11-26T19:02:40.983Z,8.02
2017-11-26T19:05:07.054Z,7.95
2017-11-26T19:07:33.937Z,8.27
2017-11-26T19:10:00.082Z,7.75
2017-11-26T19:12:26.184Z,9.48
2017-11-26T19:14:52.320Z,7.75
2017-11-26T19:17:18.468Z,8.98
2017-11-26T19:19:44.568Z,8.98
2017-11-26T19:22:10.851Z,9.02
2017-11-26T19:24:37.659Z,7.70
2017-11-26T19:27:03.787Z,8.07
2017-11-26T19:29:29.886Z,9.02
2017-11-26T19:31:56.081Z,8.50
2017-11-26T19:34:22.204Z,7.60
2017-11-26T19:36:48.671Z,8.05
2017-11-26T19:39:14.789Z,8.10
2017-11-26T19:41:40.922Z,8.68
2017-11-26T19:44:07.787Z,10.25
2017-11-26T19:46:34.671Z,10.00
2017-11-26T19:49:01.552Z,9.32
2017-11-26T19:51:27.643Z,7.95
2017-11-26T19:53:53.802Z,10.57
2017-11-26T19:56:20.010Z,11.02
2017-11-26T19:58:46.145Z,10.43
2017-11-26T20:01:13.071Z,11.80
2017-11-26T20:03:39.210Z,13.30
2017-11-26T20:06:05.272Z,11.45
2017-11-26T20:08:31.338Z,11.98
2017-11-26T20:10:57.480Z,11.35
2017-11-26T20:13:23.545Z,11.77
2017-11-26T20:15:50.411Z,12.88
2017-11-26T20:18:16.519Z,12.98
2017-11-26T20:20:43.394Z,11.15
2017-11-26T20:23:09.615Z,12.57
2017-11-26T20:25:35.719Z,11.98
2017-11-26T20:28:02.609Z,11.12
2017-11-26T20:30:28.685Z,13.52
2017-11-26T20:32:55.563Z,15.90
2017-11-26T20:35:21.680Z,12.32
2017-11-26T20:37:47.813Z,11.40
2017-11-26T20:40:14.028Z,13.38
2017-11-26T20:42:40.161Z,13.82
2017-11-26T20:45:06.267Z,12.95
2017-11-26T20:47:32.317Z,11.73
2017-11-26T20:49:58.427Z,10.63
2017-11-26T20:52:24.557Z,12.45
2017-11-26T20:54:50.626Z,10.27
2017-11-26T20:57:16.717Z,8.75
2017-11-26T20:59:42.755Z,9.77
2017-11-26T21:02:08.810Z,11.65
2017-11-26T21:04:35.607Z,12.23
2017-11-26T21:07:01.675Z,11.52
2017-11-26T21:09:28.495Z,10.60
2017-11-26T21:11:54.547Z,10.02
2017-11-26T21:14:21.366Z,10.95
2017-11-26T21:16:47.532Z,10.68
2017-11-26T21:19:13.610Z,9.73
2017-11-26T21:21:39.795Z,9.13
2017-11-26T21:24:05.873Z,8.55
2017-11-26T21:26:32.048Z,8.13
2017-11-26T21:28:58.175Z,7.80
2017-11-26T21:31:24.244Z,6.22
2017-11-26T21:33:50.319Z,9.27
2017-11-26T21:36:16.380Z,8.75
2017-11-26T21:38:42.523Z,7.93
2017-11-26T21:41:09.303Z,14.02
2017-11-26T21:43:35.362Z,11.02
2017-11-26T21:46:01.414Z,11.32
2017-11-26T21:48:28.287Z,9.75
2017-11-26T21:50:54.353Z,9.40
2017-11-26T21:53:20.468Z,13.70
2017-11-26T21:55:46.539Z,11.70
2017-11-26T21:58:12.579Z,9.93
2017-11-26T22:00:38.630Z,10.88
2017-11-26T22:03:04.711Z,10.27
2017-11-26T22:05:30.795Z,10.90
2017-11-26T22:07:56.951Z,12.70
2017-11-26T22:10:23.753Z,12.10
2017-11-26T22:12:49.798Z,11.02
2017-11-26T22:15:15.847Z,12.02
2017-11-26T22:17:41.969Z,11.50
2017-11-26T22:20:08.047Z,12.98
2017-11-26T22:22:34.256Z,13.55
2017-11-26T22:25:01.358Z,10.93
2017-11-26T22:27:28.153Z,10.20
2017-11-26T22:29:54.208Z,11.05
2017-11-26T22:32:21.002Z,11.05
2017-11-26T22:34:47.067Z,10.80
2017-11-26T22:37:13.139Z,10.05
2017-11-26T22:39:39.312Z,9.75
2017-11-26T22:42:05.379Z,8.98
2017-11-26T22:44:31.443Z,7.70
2017-11-26T22:46:57.492Z,7.65
2017-11-26T22:49:23.662Z,8.50
2017-11-26T22:51:49.786Z,9.50
2017-11-26T22:54:15.853Z,9.65
2017-11-26T22:56:41.906Z,11.93
2017-11-26T22:59:07.964Z,12.02
2017-11-26T23:01:34.032Z,11.50
2017-11-26T23:04:00.393Z,10.70
2017-11-26T23:06:27.374Z,10.75
2017-11-26T23:08:54.154Z,11.40
2017-11-26T23:11:20.934Z,9.57
2017-11-26T23:13:46.987Z,10.05
2017-11-26T23:16:13.068Z,10.52
2017-11-26T23:18:39.336Z,9.77
2017-11-26T23:21:05.590Z,9.63
2017-11-26T23:23:32.607Z,9.82
2017-11-26T23:25:58.897Z,8.63
2017-11-26T23:28:25.147Z,8.80
2017-11-26T23:30:51.459Z,9.50
2017-11-26T23:33:17.736Z,9.75
2017-11-26T23:35:44.066Z,8.75
2017-11-26T23:38:10.322Z,8.27
2017-11-26T23:40:36.576Z,7.78
2017-11-26T23:43:02.854Z,8.10
2017-11-26T23:45:29.105Z,7.03
2017-11-26T23:47:56.152Z,6.43
2017-11-26T23:50:23.139Z,6.78
2017-11-26T23:52:49.375Z,7.20
2017-11-26T23:55:15.607Z,7.20
2017-11-26T23:57:41.846Z,7.18
